首页
METAR-TAF:

METAR-TAF

机场 :

蘇聖瑪麗, 安大略省, 加拿大

纬度: 46-29N, 经度: 084-30W, 海拔: 187米

当前天气观测

该预报发布于42分钟前的13:00 UTC
风速2节,风向东转东北
温度 14°C
湿度 82%
气压 1011 hPa
能見度: 32.2公里
散云层高于17000英尺
散云层高于19000英尺
多云层高于25000英尺
多云层高于28000英尺

METAR: CYAM 051300Z 07002KT 20SM SCT170 SCT190 BKN250 BKN280 14/11 A2984 RMK AC3AC1CI1CI2 SLP108 DENSITY ALT 800FT

时间: 09:42 (13:42 UTC)

预报

该预报发布于6小时和2分钟前的07:40 UTC
预报有效从05日的 08点(UTC)到 05日的 20点(UTC)
风速3节,风向多变
能見度: 10公里
天空无云
从 05日的 1400点(UTC)
风速3节,风向多变
能見度: 10公里
散云层高于8000英尺
多云层高于12000英尺
成为
从 05日的 14点(UTC)到 05日的 16点(UTC)
风速7节,风向西
从 05日的 1900点(UTC)
风速12节,风向西转西北
能見度: 10公里
少量云层高于8000英尺

TAF: CYAM 050740Z 0508/0520 VRB03KT P6SM SKC FM051400 VRB03KT P6SM SCT080 BKN120 BECMG 0514/0516 28007KT FM051900 30012KT P6SM FEW080 RMK NXT FCST BY 051400Z

超过4000个机场的气象观测和天气预报(METAR&TAF报告)。

可查询的气象台以黄色和红色小点在地图上表示。

将鼠标移到小点上方,可查看气象台名称。

然后点击查看天气观测和预报。

如需切换地图:点击带黑十字的绿色按钮放大地图;点击带横线的绿色按钮缩小地图;或者点击绿色箭头查看邻近地区的地图。


METAR-TAF: